Forest Lawn, MD

9:32 AM EST on December 07, 2016 (GMT -0500)
GLENWOOD TURBO | | Change Station

Elev 302 ft 39.51 °N, 76.32 °W | Updated 15 seconds ago

Overcast
Overcast
41.9 °F
Feels Like 42 °F
N
2.0
Wind Variable Wind from South

Today
High -- | Low -- °F
--% Chance of Precip.
Yesterday
High -- | Low -- °F
Precip. -- in
Pressure 30.03 in
Visibility 7.0 miles
Clouds Overcast 3500 ft
Windchill 42 °F
Dew Point 40 °F
Humidity 96%
Rainfall 0.00 in
Snow Depth Not available.
7:12 AM 4:41 PM
First Quarter, 53% visible
METAR KAPG 071359Z 00000KT 7SM OVC035 06/05 A3002 RMK AO2A SLP169 T00560045
Pressure 30.03 in
Visibility 7.0 miles
Clouds Overcast 3500 ft
Windchill 42 °F
Dew Point 40 °F
Humidity 96%
Rainfall 0.00 in
Snow Depth Not available.
7:12 AM 4:41 PM
First Quarter, 53% visible
METAR KAPG 071359Z 00000KT 7SM OVC035 06/05 A3002 RMK AO2A SLP169 T00560045

10-Day Weather Forecast

Almanac

Astronomy

Dec. 07, 2016 Rise Set
Actual Time
Civil Twilight
Nautical Twilight
Astronomical Twilight
Moon
Length of Visible Light
Length of Day
Tomorrow will be .
, % of the Moon is Illuminated

Today's Extremes

State Highs State Lows

Community

WunderPhotos

Upload Photos

1,956,116 photos uploaded!

WunderBlog® & News

Nearby

Air Quality

  Air Quality AQ Index Pollutant
Not available.

Snow Depth

Station Depth Elevation

Earthquake Activity

City Distance Mag. Time & Date
Minimum magnitude displayed is 2.5.

Coastal Water Temperatures

Place Temperature

Stations

Nearby Weather Stations

Station Location Temp. Windchill Dew Point Humidity Wind Precip. Elev Updated Type
                   

Watches & Warnings

There are currently no watches in effect.